sensor_id;sensor_type;location;lat;lon;timestamp;P1;durP1;ratioP1;P2;durP2;ratioP2
74791;SDS011;63319;46.046;17.802;2023-02-11T00:03:01;31.17;;;18.80;;
74791;SDS011;63319;46.046;17.802;2023-02-11T00:06:05;27.70;;;17.92;;
74791;SDS011;63319;46.046;17.802;2023-02-11T00:09:13;30.55;;;18.92;;
74791;SDS011;63319;46.046;17.802;2023-02-11T00:12:16;27.50;;;17.90;;
74791;SDS011;63319;46.046;17.802;2023-02-11T00:15:20;29.87;;;18.70;;
74791;SDS011;63319;46.046;17.802;2023-02-11T00:18:24;31.37;;;19.67;;
74791;SDS011;63319;46.046;17.802;2023-02-11T00:21:27;32.45;;;19.88;;
74791;SDS011;63319;46.046;17.802;2023-02-11T00:24:30;30.40;;;18.80;;
74791;SDS011;63319;46.046;17.802;2023-02-11T00:27:35;30.25;;;19.30;;
74791;SDS011;63319;46.046;17.802;2023-02-11T00:30:38;31.10;;;19.10;;
74791;SDS011;63319;46.046;17.802;2023-02-11T00:33:42;30.10;;;19.27;;
74791;SDS011;63319;46.046;17.802;2023-02-11T00:36:45;30.25;;;19.13;;
74791;SDS011;63319;46.046;17.802;2023-02-11T00:39:49;30.95;;;19.25;;
74791;SDS011;63319;46.046;17.802;2023-02-11T00:42:51;30.48;;;18.98;;
74791;SDS011;63319;46.046;17.802;2023-02-11T00:45:54;31.93;;;20.23;;
74791;SDS011;63319;46.046;17.802;2023-02-11T00:48:58;33.17;;;20.07;;
74791;SDS011;63319;46.046;17.802;2023-02-11T00:52:01;32.85;;;20.40;;
74791;SDS011;63319;46.046;17.802;2023-02-11T00:55:03;30.55;;;20.90;;
74791;SDS011;63319;46.046;17.802;2023-02-11T00:58:07;33.55;;;20.25;;
74791;SDS011;63319;46.046;17.802;2023-02-11T01:01:10;28.87;;;18.77;;
74791;SDS011;63319;46.046;17.802;2023-02-11T01:04:14;29.47;;;18.83;;
74791;SDS011;63319;46.046;17.802;2023-02-11T01:07:17;30.67;;;18.88;;
74791;SDS011;63319;46.046;17.802;2023-02-11T01:10:20;28.58;;;17.83;;
74791;SDS011;63319;46.046;17.802;2023-02-11T01:13:23;29.20;;;19.25;;
74791;SDS011;63319;46.046;17.802;2023-02-11T01:16:31;28.57;;;18.43;;
74791;SDS011;63319;46.046;17.802;2023-02-11T01:19:37;26.43;;;17.47;;
74791;SDS011;63319;46.046;17.802;2023-02-11T01:22:41;27.48;;;17.45;;
74791;SDS011;63319;46.046;17.802;2023-02-11T01:25:51;31.13;;;19.00;;
74791;SDS011;63319;46.046;17.802;2023-02-11T01:28:54;29.95;;;18.40;;
74791;SDS011;63319;46.046;17.802;2023-02-11T01:31:57;29.43;;;18.70;;
74791;SDS011;63319;46.046;17.802;2023-02-11T01:35:02;29.97;;;18.20;;
74791;SDS011;63319;46.046;17.802;2023-02-11T01:38:05;27.40;;;17.65;;
74791;SDS011;63319;46.046;17.802;2023-02-11T01:41:10;27.63;;;18.05;;
74791;SDS011;63319;46.046;17.802;2023-02-11T01:44:29;26.75;;;17.08;;
74791;SDS011;63319;46.046;17.802;2023-02-11T01:47:34;28.00;;;17.63;;
74791;SDS011;63319;46.046;17.802;2023-02-11T01:50:37;27.37;;;18.00;;
74791;SDS011;63319;46.046;17.802;2023-02-11T01:53:43;27.67;;;17.92;;
74791;SDS011;63319;46.046;17.802;2023-02-11T01:57:07;24.25;;;15.57;;
74791;SDS011;63319;46.046;17.802;2023-02-11T02:00:28;27.20;;;17.58;;
74791;SDS011;63319;46.046;17.802;2023-02-11T02:03:36;26.97;;;17.70;;
74791;SDS011;63319;46.046;17.802;2023-02-11T02:06:45;25.40;;;17.47;;
74791;SDS011;63319;46.046;17.802;2023-02-11T02:09:57;25.38;;;17.10;;
74791;SDS011;63319;46.046;17.802;2023-02-11T02:13:03;24.23;;;16.73;;
74791;SDS011;63319;46.046;17.802;2023-02-11T02:16:12;26.48;;;16.92;;
74791;SDS011;63319;46.046;17.802;2023-02-11T02:23:13;28.83;;;18.17;;
74791;SDS011;63319;46.046;17.802;2023-02-11T02:33:23;27.88;;;17.95;;
74791;SDS011;63319;46.046;17.802;2023-02-11T02:36:43;26.43;;;17.27;;
74791;SDS011;63319;46.046;17.802;2023-02-11T02:39:53;25.13;;;16.47;;
74791;SDS011;63319;46.046;17.802;2023-02-11T02:42:58;26.30;;;17.80;;
74791;SDS011;63319;46.046;17.802;2023-02-11T02:49:36;26.65;;;17.08;;
74791;SDS011;63319;46.046;17.802;2023-02-11T02:55:58;24.87;;;16.80;;
74791;SDS011;63319;46.046;17.802;2023-02-11T03:09:01;24.63;;;15.40;;
74791;SDS011;63319;46.046;17.802;2023-02-11T03:12:12;24.07;;;16.13;;
74791;SDS011;63319;46.046;17.802;2023-02-11T03:15:17;24.63;;;16.73;;
74791;SDS011;63319;46.046;17.802;2023-02-11T03:18:23;25.95;;;16.38;;
74791;SDS011;63319;46.046;17.802;2023-02-11T03:21:31;25.45;;;16.48;;
74791;SDS011;63319;46.046;17.802;2023-02-11T03:24:36;23.27;;;15.33;;
74791;SDS011;63319;46.046;17.802;2023-02-11T03:30:52;25.88;;;16.58;;
74791;SDS011;63319;46.046;17.802;2023-02-11T03:34:09;23.20;;;15.93;;
74791;SDS011;63319;46.046;17.802;2023-02-11T03:37:20;25.75;;;16.88;;
74791;SDS011;63319;46.046;17.802;2023-02-11T03:40:31;25.07;;;15.47;;
74791;SDS011;63319;46.046;17.802;2023-02-11T03:43:39;23.93;;;14.80;;
74791;SDS011;63319;46.046;17.802;2023-02-11T03:46:47;24.50;;;16.65;;
74791;SDS011;63319;46.046;17.802;2023-02-11T03:49:52;24.42;;;15.27;;
74791;SDS011;63319;46.046;17.802;2023-02-11T03:52:58;24.00;;;15.00;;
74791;SDS011;63319;46.046;17.802;2023-02-11T03:56:04;24.40;;;15.63;;
74791;SDS011;63319;46.046;17.802;2023-02-11T03:59:10;22.93;;;15.43;;
74791;SDS011;63319;46.046;17.802;2023-02-11T04:02:13;21.33;;;14.80;;
74791;SDS011;63319;46.046;17.802;2023-02-11T04:05:16;23.58;;;16.00;;
74791;SDS011;63319;46.046;17.802;2023-02-11T04:08:19;22.25;;;14.73;;
74791;SDS011;63319;46.046;17.802;2023-02-11T04:11:22;23.83;;;16.03;;
74791;SDS011;63319;46.046;17.802;2023-02-11T04:14:25;22.30;;;15.63;;
74791;SDS011;63319;46.046;17.802;2023-02-11T04:17:28;22.70;;;14.50;;
74791;SDS011;63319;46.046;17.802;2023-02-11T04:20:30;22.38;;;15.38;;
74791;SDS011;63319;46.046;17.802;2023-02-11T04:23:33;22.45;;;15.43;;
74791;SDS011;63319;46.046;17.802;2023-02-11T04:26:36;23.47;;;14.80;;
74791;SDS011;63319;46.046;17.802;2023-02-11T04:29:39;21.30;;;15.10;;
74791;SDS011;63319;46.046;17.802;2023-02-11T04:32:42;23.40;;;15.45;;
74791;SDS011;63319;46.046;17.802;2023-02-11T04:35:45;21.45;;;14.25;;
74791;SDS011;63319;46.046;17.802;2023-02-11T04:38:48;21.80;;;14.52;;
74791;SDS011;63319;46.046;17.802;2023-02-11T04:41:51;22.47;;;15.30;;
74791;SDS011;63319;46.046;17.802;2023-02-11T04:44:53;21.20;;;14.00;;
74791;SDS011;63319;46.046;17.802;2023-02-11T04:47:56;21.17;;;14.50;;
74791;SDS011;63319;46.046;17.802;2023-02-11T04:51:00;24.20;;;14.60;;
74791;SDS011;63319;46.046;17.802;2023-02-11T04:54:03;23.88;;;15.45;;
74791;SDS011;63319;46.046;17.802;2023-02-11T04:57:06;20.73;;;14.83;;
74791;SDS011;63319;46.046;17.802;2023-02-11T05:00:09;24.83;;;15.83;;
74791;SDS011;63319;46.046;17.802;2023-02-11T05:03:15;23.83;;;16.05;;
74791;SDS011;63319;46.046;17.802;2023-02-11T05:06:22;22.88;;;15.77;;
74791;SDS011;63319;46.046;17.802;2023-02-11T05:09:24;24.23;;;15.57;;
74791;SDS011;63319;46.046;17.802;2023-02-11T05:12:27;24.57;;;15.43;;
74791;SDS011;63319;46.046;17.802;2023-02-11T05:15:30;23.33;;;16.03;;
74791;SDS011;63319;46.046;17.802;2023-02-11T05:18:35;22.92;;;15.55;;
74791;SDS011;63319;46.046;17.802;2023-02-11T05:21:39;23.05;;;15.63;;
74791;SDS011;63319;46.046;17.802;2023-02-11T05:25:01;23.63;;;15.48;;
74791;SDS011;63319;46.046;17.802;2023-02-11T05:28:04;23.27;;;15.77;;
74791;SDS011;63319;46.046;17.802;2023-02-11T05:31:07;23.03;;;14.70;;
74791;SDS011;63319;46.046;17.802;2023-02-11T05:34:10;23.15;;;15.93;;
74791;SDS011;63319;46.046;17.802;2023-02-11T05:37:13;22.55;;;15.70;;
74791;SDS011;63319;46.046;17.802;2023-02-11T05:40:16;22.02;;;15.20;;
74791;SDS011;63319;46.046;17.802;2023-02-11T05:43:19;23.30;;;15.30;;
74791;SDS011;63319;46.046;17.802;2023-02-11T05:46:22;24.17;;;16.33;;
74791;SDS011;63319;46.046;17.802;2023-02-11T05:49:25;24.27;;;15.82;;
74791;SDS011;63319;46.046;17.802;2023-02-11T05:52:35;23.00;;;16.42;;
74791;SDS011;63319;46.046;17.802;2023-02-11T05:55:38;26.20;;;17.52;;
74791;SDS011;63319;46.046;17.802;2023-02-11T05:58:41;24.10;;;16.73;;
74791;SDS011;63319;46.046;17.802;2023-02-11T06:01:44;27.07;;;17.90;;
74791;SDS011;63319;46.046;17.802;2023-02-11T06:04:47;26.17;;;16.98;;
74791;SDS011;63319;46.046;17.802;2023-02-11T06:07:50;25.15;;;17.25;;
74791;SDS011;63319;46.046;17.802;2023-02-11T06:10:53;27.92;;;19.13;;
74791;SDS011;63319;46.046;17.802;2023-02-11T06:13:56;26.77;;;17.90;;
74791;SDS011;63319;46.046;17.802;2023-02-11T06:16:59;26.43;;;17.40;;
74791;SDS011;63319;46.046;17.802;2023-02-11T06:20:03;24.98;;;17.90;;
74791;SDS011;63319;46.046;17.802;2023-02-11T06:23:08;25.92;;;17.63;;
74791;SDS011;63319;46.046;17.802;2023-02-11T06:26:15;27.60;;;18.73;;
74791;SDS011;63319;46.046;17.802;2023-02-11T06:29:19;26.73;;;17.63;;
74791;SDS011;63319;46.046;17.802;2023-02-11T06:32:22;26.77;;;17.67;;
74791;SDS011;63319;46.046;17.802;2023-02-11T06:35:44;27.65;;;18.20;;
74791;SDS011;63319;46.046;17.802;2023-02-11T06:38:47;27.42;;;17.77;;
74791;SDS011;63319;46.046;17.802;2023-02-11T06:41:50;26.45;;;17.48;;
74791;SDS011;63319;46.046;17.802;2023-02-11T06:44:53;28.53;;;18.73;;
74791;SDS011;63319;46.046;17.802;2023-02-11T06:47:56;27.90;;;18.77;;
74791;SDS011;63319;46.046;17.802;2023-02-11T06:51:08;29.15;;;19.92;;
74791;SDS011;63319;46.046;17.802;2023-02-11T06:54:12;29.83;;;20.30;;
74791;SDS011;63319;46.046;17.802;2023-02-11T06:57:16;29.90;;;19.77;;
74791;SDS011;63319;46.046;17.802;2023-02-11T07:00:18;30.93;;;19.73;;
74791;SDS011;63319;46.046;17.802;2023-02-11T07:03:21;30.33;;;20.87;;
74791;SDS011;63319;46.046;17.802;2023-02-11T07:06:27;30.45;;;21.50;;
74791;SDS011;63319;46.046;17.802;2023-02-11T07:09:30;33.15;;;21.75;;
74791;SDS011;63319;46.046;17.802;2023-02-11T07:12:33;34.40;;;22.80;;
74791;SDS011;63319;46.046;17.802;2023-02-11T07:15:39;33.67;;;22.60;;
74791;SDS011;63319;46.046;17.802;2023-02-11T07:18:42;33.33;;;22.80;;
74791;SDS011;63319;46.046;17.802;2023-02-11T07:21:49;33.55;;;22.83;;
74791;SDS011;63319;46.046;17.802;2023-02-11T07:24:53;35.63;;;22.92;;
74791;SDS011;63319;46.046;17.802;2023-02-11T07:27:56;36.47;;;23.80;;
74791;SDS011;63319;46.046;17.802;2023-02-11T07:30:59;36.57;;;24.33;;
74791;SDS011;63319;46.046;17.802;2023-02-11T07:34:08;36.03;;;23.63;;
74791;SDS011;63319;46.046;17.802;2023-02-11T07:37:24;37.75;;;25.25;;
74791;SDS011;63319;46.046;17.802;2023-02-11T07:40:27;41.65;;;27.20;;
74791;SDS011;63319;46.046;17.802;2023-02-11T07:43:33;44.65;;;28.48;;
74791;SDS011;63319;46.046;17.802;2023-02-11T07:46:37;42.83;;;29.73;;
74791;SDS011;63319;46.046;17.802;2023-02-11T07:49:58;44.97;;;28.53;;
74791;SDS011;63319;46.046;17.802;2023-02-11T07:53:04;48.22;;;31.67;;
74791;SDS011;63319;46.046;17.802;2023-02-11T07:56:08;41.40;;;28.25;;
74791;SDS011;63319;46.046;17.802;2023-02-11T07:59:15;38.95;;;27.38;;
74791;SDS011;63319;46.046;17.802;2023-02-11T08:02:52;38.30;;;26.87;;
74791;SDS011;63319;46.046;17.802;2023-02-11T08:06:21;39.80;;;26.77;;
74791;SDS011;63319;46.046;17.802;2023-02-11T08:09:29;37.83;;;26.48;;
74791;SDS011;63319;46.046;17.802;2023-02-11T08:12:39;36.72;;;25.48;;
74791;SDS011;63319;46.046;17.802;2023-02-11T08:15:41;36.30;;;26.77;;
74791;SDS011;63319;46.046;17.802;2023-02-11T08:18:45;33.73;;;24.77;;
74791;SDS011;63319;46.046;17.802;2023-02-11T08:21:48;38.03;;;25.53;;
74791;SDS011;63319;46.046;17.802;2023-02-11T08:24:51;36.45;;;24.95;;
74791;SDS011;63319;46.046;17.802;2023-02-11T08:27:53;36.42;;;25.65;;
74791;SDS011;63319;46.046;17.802;2023-02-11T08:30:56;33.15;;;24.88;;
74791;SDS011;63319;46.046;17.802;2023-02-11T08:33:59;36.47;;;24.87;;
74791;SDS011;63319;46.046;17.802;2023-02-11T08:37:06;34.87;;;26.17;;
74791;SDS011;63319;46.046;17.802;2023-02-11T08:40:10;34.38;;;25.08;;
74791;SDS011;63319;46.046;17.802;2023-02-11T08:43:13;34.50;;;25.17;;
74791;SDS011;63319;46.046;17.802;2023-02-11T08:46:17;33.42;;;24.83;;
74791;SDS011;63319;46.046;17.802;2023-02-11T08:49:21;34.90;;;23.73;;
74791;SDS011;63319;46.046;17.802;2023-02-11T08:52:24;33.10;;;24.27;;
74791;SDS011;63319;46.046;17.802;2023-02-11T08:55:26;34.10;;;23.85;;
74791;SDS011;63319;46.046;17.802;2023-02-11T08:58:29;33.92;;;24.08;;
74791;SDS011;63319;46.046;17.802;2023-02-11T09:01:32;31.13;;;23.23;;
74791;SDS011;63319;46.046;17.802;2023-02-11T09:04:35;31.97;;;23.33;;
74791;SDS011;63319;46.046;17.802;2023-02-11T09:07:38;33.60;;;23.97;;
74791;SDS011;63319;46.046;17.802;2023-02-11T09:10:41;31.77;;;23.20;;
74791;SDS011;63319;46.046;17.802;2023-02-11T09:13:44;31.88;;;22.85;;
74791;SDS011;63319;46.046;17.802;2023-02-11T09:16:48;32.13;;;23.02;;
74791;SDS011;63319;46.046;17.802;2023-02-11T09:19:51;33.17;;;23.80;;
74791;SDS011;63319;46.046;17.802;2023-02-11T09:22:55;32.00;;;24.07;;
74791;SDS011;63319;46.046;17.802;2023-02-11T09:26:05;29.58;;;22.95;;
74791;SDS011;63319;46.046;17.802;2023-02-11T09:29:19;31.13;;;22.15;;
74791;SDS011;63319;46.046;17.802;2023-02-11T09:32:22;31.05;;;23.15;;
74791;SDS011;63319;46.046;17.802;2023-02-11T09:35:25;30.07;;;22.00;;
74791;SDS011;63319;46.046;17.802;2023-02-11T09:38:28;30.53;;;22.57;;
74791;SDS011;63319;46.046;17.802;2023-02-11T09:45:00;30.63;;;23.08;;
74791;SDS011;63319;46.046;17.802;2023-02-11T09:51:23;29.03;;;21.57;;
74791;SDS011;63319;46.046;17.802;2023-02-11T09:57:59;30.38;;;21.83;;
74791;SDS011;63319;46.046;17.802;2023-02-11T10:14:59;28.67;;;20.90;;
74791;SDS011;63319;46.046;17.802;2023-02-11T10:21:37;29.85;;;21.48;;
74791;SDS011;63319;46.046;17.802;2023-02-11T10:24:50;28.53;;;21.23;;
74791;SDS011;63319;46.046;17.802;2023-02-11T10:27:57;29.53;;;20.50;;
74791;SDS011;63319;46.046;17.802;2023-02-11T10:31:10;27.98;;;20.80;;
74791;SDS011;63319;46.046;17.802;2023-02-11T10:34:17;29.55;;;21.25;;
74791;SDS011;63319;46.046;17.802;2023-02-11T10:37:20;28.45;;;21.42;;
74791;SDS011;63319;46.046;17.802;2023-02-11T10:40:25;26.70;;;20.43;;
74791;SDS011;63319;46.046;17.802;2023-02-11T10:43:32;27.50;;;20.97;;
74791;SDS011;63319;46.046;17.802;2023-02-11T10:46:36;27.67;;;20.65;;
74791;SDS011;63319;46.046;17.802;2023-02-11T10:49:43;27.17;;;20.58;;
74791;SDS011;63319;46.046;17.802;2023-02-11T10:52:47;27.05;;;20.23;;
74791;SDS011;63319;46.046;17.802;2023-02-11T10:55:51;26.00;;;19.73;;
74791;SDS011;63319;46.046;17.802;2023-02-11T11:02:01;29.05;;;21.55;;
74791;SDS011;63319;46.046;17.802;2023-02-11T11:05:18;29.25;;;20.63;;
74791;SDS011;63319;46.046;17.802;2023-02-11T11:11:49;27.00;;;20.50;;
74791;SDS011;63319;46.046;17.802;2023-02-11T11:15:17;26.57;;;19.37;;
74791;SDS011;63319;46.046;17.802;2023-02-11T11:18:25;27.70;;;20.83;;
74791;SDS011;63319;46.046;17.802;2023-02-11T11:21:35;26.52;;;19.42;;
74791;SDS011;63319;46.046;17.802;2023-02-11T11:24:43;25.98;;;19.65;;
74791;SDS011;63319;46.046;17.802;2023-02-11T11:27:48;27.87;;;20.27;;
74791;SDS011;63319;46.046;17.802;2023-02-11T11:30:53;26.53;;;19.40;;
74791;SDS011;63319;46.046;17.802;2023-02-11T11:33:58;26.10;;;19.42;;
74791;SDS011;63319;46.046;17.802;2023-02-11T11:37:12;27.77;;;20.63;;
74791;SDS011;63319;46.046;17.802;2023-02-11T11:40:49;30.45;;;20.20;;
74791;SDS011;63319;46.046;17.802;2023-02-11T11:44:24;26.83;;;19.47;;
74791;SDS011;63319;46.046;17.802;2023-02-11T11:47:38;25.07;;;18.77;;
74791;SDS011;63319;46.046;17.802;2023-02-11T11:50:46;24.17;;;18.50;;
74791;SDS011;63319;46.046;17.802;2023-02-11T11:54:01;26.15;;;19.33;;
74791;SDS011;63319;46.046;17.802;2023-02-11T11:57:12;25.33;;;19.73;;
74791;SDS011;63319;46.046;17.802;2023-02-11T12:00:32;27.13;;;19.67;;
74791;SDS011;63319;46.046;17.802;2023-02-11T12:03:48;28.53;;;19.63;;
74791;SDS011;63319;46.046;17.802;2023-02-11T12:10:45;24.52;;;18.08;;
74791;SDS011;63319;46.046;17.802;2023-02-11T12:13:56;27.48;;;19.88;;
74791;SDS011;63319;46.046;17.802;2023-02-11T12:17:26;26.57;;;18.50;;
74791;SDS011;63319;46.046;17.802;2023-02-11T12:28:02;24.55;;;18.73;;
74791;SDS011;63319;46.046;17.802;2023-02-11T12:45:24;25.15;;;18.90;;
74791;SDS011;63319;46.046;17.802;2023-02-11T12:58:26;24.67;;;18.58;;
74791;SDS011;63319;46.046;17.802;2023-02-11T13:01:46;24.10;;;18.15;;
74791;SDS011;63319;46.046;17.802;2023-02-11T13:04:53;24.15;;;18.58;;
74791;SDS011;63319;46.046;17.802;2023-02-11T13:11:42;25.33;;;17.30;;
74791;SDS011;63319;46.046;17.802;2023-02-11T13:14:55;22.65;;;16.58;;
74791;SDS011;63319;46.046;17.802;2023-02-11T13:18:04;23.70;;;17.13;;
74791;SDS011;63319;46.046;17.802;2023-02-11T13:25:14;23.63;;;18.33;;
74791;SDS011;63319;46.046;17.802;2023-02-11T13:31:53;23.88;;;17.95;;
74791;SDS011;63319;46.046;17.802;2023-02-11T13:38:31;23.33;;;17.55;;
74791;SDS011;63319;46.046;17.802;2023-02-11T13:41:36;22.87;;;17.50;;
74791;SDS011;63319;46.046;17.802;2023-02-11T13:44:42;23.13;;;17.00;;
74791;SDS011;63319;46.046;17.802;2023-02-11T13:47:46;23.50;;;16.75;;
74791;SDS011;63319;46.046;17.802;2023-02-11T13:50:55;21.27;;;15.93;;
74791;SDS011;63319;46.046;17.802;2023-02-11T13:54:01;22.88;;;17.08;;
74791;SDS011;63319;46.046;17.802;2023-02-11T14:03:38;22.00;;;16.48;;
74791;SDS011;63319;46.046;17.802;2023-02-11T14:17:25;22.53;;;16.53;;
74791;SDS011;63319;46.046;17.802;2023-02-11T14:20:34;21.67;;;16.80;;
74791;SDS011;63319;46.046;17.802;2023-02-11T14:23:40;22.10;;;15.82;;
74791;SDS011;63319;46.046;17.802;2023-02-11T14:30:06;22.27;;;16.07;;
74791;SDS011;63319;46.046;17.802;2023-02-11T14:33:26;19.80;;;15.57;;
74791;SDS011;63319;46.046;17.802;2023-02-11T14:36:57;22.15;;;17.20;;
74791;SDS011;63319;46.046;17.802;2023-02-11T14:43:37;21.13;;;15.30;;
74791;SDS011;63319;46.046;17.802;2023-02-11T14:46:49;22.57;;;16.20;;
74791;SDS011;63319;46.046;17.802;2023-02-11T14:50:17;22.27;;;15.93;;
74791;SDS011;63319;46.046;17.802;2023-02-11T14:53:25;21.35;;;15.43;;
74791;SDS011;63319;46.046;17.802;2023-02-11T14:56:32;20.88;;;15.63;;
74791;SDS011;63319;46.046;17.802;2023-02-11T14:59:36;22.33;;;16.83;;
74791;SDS011;63319;46.046;17.802;2023-02-11T15:02:42;19.20;;;14.77;;
74791;SDS011;63319;46.046;17.802;2023-02-11T15:05:46;20.50;;;14.93;;
74791;SDS011;63319;46.046;17.802;2023-02-11T15:12:25;20.95;;;15.48;;
74791;SDS011;63319;46.046;17.802;2023-02-11T15:15:33;21.58;;;15.55;;
74791;SDS011;63319;46.046;17.802;2023-02-11T15:18:39;19.47;;;14.43;;
74791;SDS011;63319;46.046;17.802;2023-02-11T15:21:45;20.77;;;15.23;;
74791;SDS011;63319;46.046;17.802;2023-02-11T15:28:30;21.45;;;15.35;;
74791;SDS011;63319;46.046;17.802;2023-02-11T15:31:35;21.58;;;15.27;;
74791;SDS011;63319;46.046;17.802;2023-02-11T15:34:40;19.73;;;14.87;;
74791;SDS011;63319;46.046;17.802;2023-02-11T15:37:44;19.63;;;14.47;;
74791;SDS011;63319;46.046;17.802;2023-02-11T15:40:52;19.80;;;15.48;;
74791;SDS011;63319;46.046;17.802;2023-02-11T15:44:02;19.67;;;15.13;;
74791;SDS011;63319;46.046;17.802;2023-02-11T15:47:10;20.50;;;14.85;;
74791;SDS011;63319;46.046;17.802;2023-02-11T15:50:20;20.23;;;15.10;;
74791;SDS011;63319;46.046;17.802;2023-02-11T15:53:28;20.00;;;15.40;;
74791;SDS011;63319;46.046;17.802;2023-02-11T15:56:43;21.77;;;16.10;;
74791;SDS011;63319;46.046;17.802;2023-02-11T15:59:51;20.42;;;15.32;;
74791;SDS011;63319;46.046;17.802;2023-02-11T16:02:56;20.48;;;14.38;;
74791;SDS011;63319;46.046;17.802;2023-02-11T16:09:33;21.83;;;16.30;;
74791;SDS011;63319;46.046;17.802;2023-02-11T16:12:38;19.17;;;14.82;;
74791;SDS011;63319;46.046;17.802;2023-02-11T16:15:51;23.10;;;16.58;;
74791;SDS011;63319;46.046;17.802;2023-02-11T16:18:58;24.48;;;18.23;;
74791;SDS011;63319;46.046;17.802;2023-02-11T16:22:09;25.37;;;17.33;;
74791;SDS011;63319;46.046;17.802;2023-02-11T16:25:21;25.97;;;19.90;;
74791;SDS011;63319;46.046;17.802;2023-02-11T16:28:26;26.98;;;19.95;;
74791;SDS011;63319;46.046;17.802;2023-02-11T16:31:33;25.55;;;19.17;;
74791;SDS011;63319;46.046;17.802;2023-02-11T16:34:42;25.88;;;19.50;;
74791;SDS011;63319;46.046;17.802;2023-02-11T16:37:49;25.93;;;18.63;;
74791;SDS011;63319;46.046;17.802;2023-02-11T16:40:54;27.80;;;19.90;;
74791;SDS011;63319;46.046;17.802;2023-02-11T16:43:58;26.02;;;19.95;;
74791;SDS011;63319;46.046;17.802;2023-02-11T16:47:05;25.67;;;18.80;;
74791;SDS011;63319;46.046;17.802;2023-02-11T16:50:17;24.35;;;18.33;;
74791;SDS011;63319;46.046;17.802;2023-02-11T16:53:24;25.87;;;19.73;;
74791;SDS011;63319;46.046;17.802;2023-02-11T16:56:28;27.20;;;18.87;;
74791;SDS011;63319;46.046;17.802;2023-02-11T16:59:33;28.05;;;18.98;;
74791;SDS011;63319;46.046;17.802;2023-02-11T17:02:45;26.70;;;19.27;;
74791;SDS011;63319;46.046;17.802;2023-02-11T17:05:50;24.48;;;18.60;;
74791;SDS011;63319;46.046;17.802;2023-02-11T17:08:59;25.63;;;18.60;;
74791;SDS011;63319;46.046;17.802;2023-02-11T17:12:05;26.73;;;19.00;;
74791;SDS011;63319;46.046;17.802;2023-02-11T17:15:09;26.40;;;19.02;;
74791;SDS011;63319;46.046;17.802;2023-02-11T17:18:13;26.85;;;18.63;;
74791;SDS011;63319;46.046;17.802;2023-02-11T17:21:18;24.25;;;19.08;;
74791;SDS011;63319;46.046;17.802;2023-02-11T17:24:22;27.57;;;18.93;;
74791;SDS011;63319;46.046;17.802;2023-02-11T17:27:31;27.20;;;19.13;;
74791;SDS011;63319;46.046;17.802;2023-02-11T17:30:37;24.88;;;18.23;;
74791;SDS011;63319;46.046;17.802;2023-02-11T17:33:43;24.67;;;17.92;;
74791;SDS011;63319;46.046;17.802;2023-02-11T17:36:48;24.60;;;18.42;;
74791;SDS011;63319;46.046;17.802;2023-02-11T17:39:58;25.73;;;17.93;;
74791;SDS011;63319;46.046;17.802;2023-02-11T17:43:02;26.33;;;18.87;;
74791;SDS011;63319;46.046;17.802;2023-02-11T17:46:07;24.67;;;18.35;;
74791;SDS011;63319;46.046;17.802;2023-02-11T17:49:12;26.48;;;18.67;;
74791;SDS011;63319;46.046;17.802;2023-02-11T17:52:22;24.92;;;17.77;;
74791;SDS011;63319;46.046;17.802;2023-02-11T17:55:31;25.87;;;18.83;;
74791;SDS011;63319;46.046;17.802;2023-02-11T17:58:38;25.00;;;17.17;;
74791;SDS011;63319;46.046;17.802;2023-02-11T18:01:43;25.60;;;18.45;;
74791;SDS011;63319;46.046;17.802;2023-02-11T18:04:48;27.05;;;18.98;;
74791;SDS011;63319;46.046;17.802;2023-02-11T18:07:55;26.13;;;18.17;;
74791;SDS011;63319;46.046;17.802;2023-02-11T18:11:03;24.43;;;18.20;;
74791;SDS011;63319;46.046;17.802;2023-02-11T18:14:11;26.60;;;18.17;;
74791;SDS011;63319;46.046;17.802;2023-02-11T18:17:15;27.63;;;19.92;;
74791;SDS011;63319;46.046;17.802;2023-02-11T18:20:20;26.73;;;19.40;;
74791;SDS011;63319;46.046;17.802;2023-02-11T18:23:24;26.88;;;19.30;;
74791;SDS011;63319;46.046;17.802;2023-02-11T18:26:30;26.83;;;18.50;;
74791;SDS011;63319;46.046;17.802;2023-02-11T18:29:37;26.30;;;19.23;;
74791;SDS011;63319;46.046;17.802;2023-02-11T18:32:44;24.42;;;17.55;;
74791;SDS011;63319;46.046;17.802;2023-02-11T18:35:49;25.15;;;18.00;;
74791;SDS011;63319;46.046;17.802;2023-02-11T18:38:53;26.00;;;17.65;;
74791;SDS011;63319;46.046;17.802;2023-02-11T18:42:00;25.00;;;17.97;;
74791;SDS011;63319;46.046;17.802;2023-02-11T18:45:06;25.90;;;18.40;;
74791;SDS011;63319;46.046;17.802;2023-02-11T18:48:15;23.80;;;17.63;;
74791;SDS011;63319;46.046;17.802;2023-02-11T18:51:22;25.02;;;17.85;;
74791;SDS011;63319;46.046;17.802;2023-02-11T18:54:27;24.90;;;18.10;;
74791;SDS011;63319;46.046;17.802;2023-02-11T18:57:30;23.23;;;17.73;;
74791;SDS011;63319;46.046;17.802;2023-02-11T19:00:46;23.93;;;17.13;;
74791;SDS011;63319;46.046;17.802;2023-02-11T19:03:55;26.40;;;19.05;;
74791;SDS011;63319;46.046;17.802;2023-02-11T19:07:00;24.58;;;18.67;;
74791;SDS011;63319;46.046;17.802;2023-02-11T19:10:07;24.13;;;17.55;;
74791;SDS011;63319;46.046;17.802;2023-02-11T19:13:12;23.20;;;17.23;;
74791;SDS011;63319;46.046;17.802;2023-02-11T19:16:18;24.90;;;17.93;;
74791;SDS011;63319;46.046;17.802;2023-02-11T19:19:24;24.88;;;17.25;;
74791;SDS011;63319;46.046;17.802;2023-02-11T19:22:30;26.25;;;19.38;;
74791;SDS011;63319;46.046;17.802;2023-02-11T19:25:36;25.35;;;18.45;;
74791;SDS011;63319;46.046;17.802;2023-02-11T19:28:51;28.80;;;19.03;;
74791;SDS011;63319;46.046;17.802;2023-02-11T19:31:57;26.33;;;19.90;;
74791;SDS011;63319;46.046;17.802;2023-02-11T19:35:05;26.83;;;19.80;;
74791;SDS011;63319;46.046;17.802;2023-02-11T19:38:16;24.20;;;18.17;;
74791;SDS011;63319;46.046;17.802;2023-02-11T19:41:23;25.48;;;18.08;;
74791;SDS011;63319;46.046;17.802;2023-02-11T19:44:27;24.40;;;18.80;;
74791;SDS011;63319;46.046;17.802;2023-02-11T19:47:33;27.13;;;19.50;;
74791;SDS011;63319;46.046;17.802;2023-02-11T19:50:39;26.98;;;19.33;;
74791;SDS011;63319;46.046;17.802;2023-02-11T19:53:44;28.20;;;19.35;;
74791;SDS011;63319;46.046;17.802;2023-02-11T19:56:53;29.67;;;20.75;;
74791;SDS011;63319;46.046;17.802;2023-02-11T19:59:59;24.97;;;18.70;;
74791;SDS011;63319;46.046;17.802;2023-02-11T20:03:13;26.57;;;18.87;;
74791;SDS011;63319;46.046;17.802;2023-02-11T20:06:21;25.92;;;18.88;;
74791;SDS011;63319;46.046;17.802;2023-02-11T20:09:28;25.75;;;18.33;;
74791;SDS011;63319;46.046;17.802;2023-02-11T20:12:35;26.70;;;18.52;;
74791;SDS011;63319;46.046;17.802;2023-02-11T20:15:40;28.13;;;19.17;;
74791;SDS011;63319;46.046;17.802;2023-02-11T20:18:45;25.57;;;18.43;;
74791;SDS011;63319;46.046;17.802;2023-02-11T20:21:53;28.27;;;19.45;;
74791;SDS011;63319;46.046;17.802;2023-02-11T20:24:58;28.52;;;19.17;;
74791;SDS011;63319;46.046;17.802;2023-02-11T20:28:06;29.45;;;20.13;;